Terminal Aerodrome Forecast
Issued by NWS Cleveland, OH

Home | Current Version | Previous Version | Text Only | Print | Product List | Glossary Off
Versions: 1 2 3 4 5 6 7 8 9 10 11 12 13 14 15 16 17 18 19 20 21 22 23 24 25 26 27 28 29

000
FTUS41 KCLE 211508 AAB
TAFCLE
TAF AMD
KCLE 211508Z 2115/2218 08006KT P6SM BKN100
     FM220000 10006KT 5SM -TSRA VCTS OVC025CB
      TEMPO 2200/2203 1 1/2SM -TSRA OVC012CB
     FM220300 14008KT 5SM -SHRA OVC025
     FM220600 18006KT P6SM OVC020
     FM221500 25008KT P6SM BKN020=

USA.gov is the U.S. government's official web portal to all federal, state and local government web resources and services.